createdAt,value
2018-05-31T00:02:30.515Z,18.00
2018-05-31T00:05:01.970Z,18.00
2018-05-31T00:07:32.590Z,14.00
2018-05-31T00:10:04.830Z,17.00
2018-05-31T00:12:36.002Z,18.67
2018-05-31T00:15:07.633Z,12.00
2018-05-31T00:17:38.818Z,15.67
2018-05-31T00:20:10.543Z,15.33
2018-05-31T00:22:42.091Z,15.00
2018-05-31T00:25:14.267Z,13.67
2018-05-31T00:27:47.571Z,15.67
2018-05-31T00:30:18.956Z,12.67
2018-05-31T00:32:50.671Z,13.33
2018-05-31T00:35:22.051Z,17.00
2018-05-31T00:37:53.402Z,15.00
2018-05-31T00:40:25.997Z,17.00
2018-05-31T00:42:58.121Z,15.00
2018-05-31T00:45:29.480Z,13.67
2018-05-31T00:48:04.168Z,17.00
2018-05-31T00:50:36.262Z,14.33
2018-05-31T00:53:07.411Z,13.33
2018-05-31T00:55:47.765Z,13.33
2018-05-31T00:58:20.054Z,12.00
2018-05-31T01:00:53.194Z,13.25
2018-05-31T01:03:24.319Z,13.00
2018-05-31T01:05:56.198Z,15.33
2018-05-31T01:08:27.653Z,13.00
2018-05-31T01:10:58.945Z,12.33
2018-05-31T01:13:30.249Z,12.33
2018-05-31T01:16:01.637Z,12.33
2018-05-31T01:18:33.178Z,12.00
2018-05-31T01:21:04.555Z,16.67
2018-05-31T01:23:36.212Z,12.00
2018-05-31T01:26:07.620Z,12.00
2018-05-31T01:28:39.031Z,15.00
2018-05-31T01:31:11.385Z,13.60
2018-05-31T01:33:42.734Z,14.33
2018-05-31T01:36:14.468Z,16.33
2018-05-31T01:38:45.645Z,12.33
2018-05-31T01:41:17.022Z,11.00
2018-05-31T01:43:49.392Z,15.00
2018-05-31T01:46:21.474Z,16.00
2018-05-31T01:48:52.804Z,11.67
2018-05-31T01:51:24.114Z,12.00
2018-05-31T01:53:56.309Z,12.25
2018-05-31T01:56:27.621Z,13.33
2018-05-31T01:58:58.922Z,13.00
2018-05-31T02:05:11.710Z,15.67
2018-05-31T02:07:43.989Z,16.00
2018-05-31T02:10:15.463Z,15.00
2018-05-31T02:12:46.857Z,15.33
2018-05-31T02:15:20.101Z,17.67
2018-05-31T02:17:52.226Z,19.33
2018-05-31T02:20:22.767Z,19.33
2018-05-31T02:22:53.933Z,18.33
2018-05-31T02:25:27.503Z,20.00
2018-05-31T02:27:59.785Z,20.33
2018-05-31T02:30:30.264Z,20.33
2018-05-31T02:33:02.531Z,20.00
2018-05-31T02:35:33.038Z,21.33
2018-05-31T02:38:03.552Z,18.67
2018-05-31T02:40:35.594Z,18.33
2018-05-31T02:43:06.128Z,20.00
2018-05-31T02:45:38.539Z,21.33
2018-05-31T02:48:09.032Z,18.00
2018-05-31T02:50:39.613Z,19.33
2018-05-31T02:53:10.110Z,21.33
2018-05-31T02:55:40.981Z,19.00
2018-05-31T02:58:13.313Z,19.00
2018-05-31T03:00:45.621Z,20.67
2018-05-31T03:03:15.894Z,20.33
2018-05-31T03:05:46.422Z,17.67
2018-05-31T03:08:18.699Z,18.00
2018-05-31T03:10:49.291Z,17.33
2018-05-31T03:13:20.867Z,15.33
2018-05-31T03:15:52.246Z,14.33
2018-05-31T03:18:24.501Z,19.67
2018-05-31T03:20:56.793Z,17.00
2018-05-31T03:23:28.343Z,15.67
2018-05-31T03:25:59.623Z,13.00
2018-05-31T03:28:31.061Z,14.33
2018-05-31T03:31:02.491Z,15.00
2018-05-31T03:33:35.513Z,16.00
2018-05-31T03:36:06.797Z,12.33
2018-05-31T03:38:37.982Z,14.33
2018-05-31T03:41:10.018Z,12.00
2018-05-31T03:43:41.419Z,13.00
2018-05-31T03:46:13.036Z,19.00
2018-05-31T03:48:44.393Z,15.33
2018-05-31T03:51:15.827Z,14.00
2018-05-31T03:53:47.157Z,13.33
2018-05-31T03:56:18.615Z,16.67
2018-05-31T03:58:51.294Z,15.00
2018-05-31T04:14:30.921Z,16.29
2018-05-31T04:17:02.281Z,14.33
2018-05-31T04:19:34.011Z,20.00
2018-05-31T04:22:04.566Z,18.33
2018-05-31T04:24:37.361Z,17.33
2018-05-31T04:27:10.023Z,19.67
2018-05-31T04:29:41.459Z,17.00
2018-05-31T04:32:13.888Z,20.00
2018-05-31T04:34:44.394Z,18.67
2018-05-31T04:37:14.892Z,24.00
2018-05-31T04:39:46.742Z,21.33
2018-05-31T04:42:18.813Z,18.67
2018-05-31T04:44:51.615Z,20.00
2018-05-31T04:47:22.142Z,19.33
2018-05-31T04:49:54.263Z,20.00
2018-05-31T04:52:27.148Z,19.67
2018-05-31T04:54:57.688Z,21.00
2018-05-31T04:57:28.153Z,21.00
2018-05-31T04:59:59.105Z,19.33
2018-05-31T05:02:31.583Z,17.00
2018-05-31T05:05:02.259Z,16.67
2018-05-31T05:07:33.146Z,20.33
2018-05-31T05:10:03.708Z,17.00
2018-05-31T05:12:34.767Z,18.00
2018-05-31T05:15:06.341Z,19.00
2018-05-31T05:17:38.682Z,16.00
2018-05-31T05:20:11.117Z,18.67
2018-05-31T05:22:42.566Z,22.00
2018-05-31T05:25:14.490Z,17.67
2018-05-31T05:27:44.990Z,20.33
2018-05-31T05:30:16.495Z,20.00
2018-05-31T05:32:46.962Z,23.00
2018-05-31T05:35:19.307Z,18.33
2018-05-31T05:37:52.002Z,19.33
2018-05-31T05:40:23.438Z,18.00
2018-05-31T05:42:54.970Z,17.33
2018-05-31T05:45:27.215Z,18.33
2018-05-31T05:47:58.665Z,15.33
2018-05-31T05:50:31.348Z,19.33
2018-05-31T05:53:01.962Z,19.33
2018-05-31T05:55:33.320Z,18.67
2018-05-31T05:58:05.024Z,15.33
2018-05-31T06:00:36.408Z,15.33
2018-05-31T06:03:06.982Z,16.33
2018-05-31T06:05:40.722Z,15.67
2018-05-31T06:08:10.987Z,20.33
2018-05-31T06:10:41.551Z,17.67
2018-05-31T06:13:12.147Z,17.00
2018-05-31T06:15:44.528Z,19.00
2018-05-31T06:18:15.981Z,16.67
2018-05-31T06:20:47.510Z,15.33
2018-05-31T06:23:18.992Z,16.33
2018-05-31T06:25:50.580Z,13.00
2018-05-31T06:28:22.022Z,16.00
2018-05-31T06:30:53.662Z,15.00
2018-05-31T06:33:25.062Z,18.00
2018-05-31T06:35:56.406Z,14.00
2018-05-31T06:38:28.059Z,15.00
2018-05-31T06:40:59.361Z,14.00
2018-05-31T06:43:30.480Z,15.33
2018-05-31T06:46:01.629Z,13.33
2018-05-31T06:48:33.946Z,11.67
2018-05-31T06:51:08.731Z,10.14
2018-05-31T06:53:40.970Z,8.60
2018-05-31T06:56:13.146Z,8.80
2018-05-31T06:58:46.073Z,8.00
2018-05-31T07:01:19.346Z,8.33
2018-05-31T07:03:53.297Z,9.29
2018-05-31T07:06:24.546Z,9.00
2018-05-31T07:08:58.562Z,9.86
2018-05-31T07:11:30.834Z,14.60
2018-05-31T07:14:03.217Z,12.80
2018-05-31T07:16:35.215Z,12.00
2018-05-31T07:19:07.354Z,11.33
2018-05-31T07:21:38.706Z,14.67
2018-05-31T07:24:10.070Z,15.33
2018-05-31T07:26:41.409Z,13.67
2018-05-31T07:29:13.341Z,13.67
2018-05-31T07:31:44.762Z,16.33
2018-05-31T07:34:16.157Z,14.00
2018-05-31T07:36:47.544Z,14.00
2018-05-31T07:39:18.931Z,14.33
2018-05-31T07:41:49.471Z,14.00
2018-05-31T07:44:21.178Z,15.00
2018-05-31T07:46:52.477Z,14.33
2018-05-31T07:49:23.801Z,14.67
2018-05-31T07:51:55.176Z,12.33
2018-05-31T07:54:28.340Z,14.00
2018-05-31T07:57:00.336Z,15.67
2018-05-31T07:59:31.890Z,13.33
2018-05-31T08:02:04.170Z,14.75
2018-05-31T08:04:36.421Z,13.50
2018-05-31T08:07:08.778Z,13.60
2018-05-31T08:09:40.366Z,15.33
2018-05-31T08:12:11.485Z,14.33
2018-05-31T08:14:42.679Z,13.67
2018-05-31T08:17:14.107Z,16.00
2018-05-31T08:19:45.538Z,13.67
2018-05-31T08:22:17.760Z,15.50
2018-05-31T08:24:49.154Z,15.00
2018-05-31T08:27:19.709Z,16.00
2018-05-31T08:29:51.131Z,18.00
2018-05-31T08:32:21.631Z,16.33
2018-05-31T08:34:53.362Z,14.67
2018-05-31T08:37:24.750Z,16.67
2018-05-31T08:39:56.192Z,17.67
2018-05-31T08:42:27.527Z,16.00
2018-05-31T08:44:58.925Z,15.00
2018-05-31T08:47:31.213Z,20.00
2018-05-31T08:50:02.594Z,15.00
2018-05-31T08:52:34.644Z,18.00
2018-05-31T08:55:06.990Z,17.67
2018-05-31T08:57:39.595Z,18.67
2018-05-31T09:00:10.107Z,20.00
2018-05-31T09:02:40.676Z,18.00
2018-05-31T09:05:12.447Z,18.00
2018-05-31T09:07:42.943Z,17.33
2018-05-31T09:10:13.591Z,19.00
2018-05-31T09:12:46.289Z,19.00
2018-05-31T09:15:18.684Z,19.67
2018-05-31T09:17:50.193Z,17.00
2018-05-31T09:20:21.966Z,19.00
2018-05-31T09:22:52.509Z,16.00
2018-05-31T09:25:23.084Z,17.00
2018-05-31T09:27:53.818Z,19.67
2018-05-31T09:30:24.317Z,21.33
2018-05-31T09:32:54.793Z,18.33
2018-05-31T09:35:25.639Z,24.67
2018-05-31T09:37:56.165Z,19.67
2018-05-31T09:40:28.651Z,21.00
2018-05-31T09:42:59.403Z,24.00
2018-05-31T09:45:30.052Z,24.00
2018-05-31T09:48:01.930Z,22.67
2018-05-31T09:50:32.400Z,25.67
2018-05-31T09:53:02.927Z,26.67
2018-05-31T09:55:34.322Z,25.33
2018-05-31T09:58:06.727Z,22.00
2018-05-31T10:00:38.358Z,21.33
2018-05-31T10:03:09.295Z,22.33
2018-05-31T10:05:43.066Z,22.67
2018-05-31T10:08:14.006Z,24.00
2018-05-31T10:10:45.264Z,21.00
2018-05-31T10:13:18.249Z,23.67
2018-05-31T10:15:48.825Z,24.00
2018-05-31T10:18:21.466Z,24.67
2018-05-31T10:20:51.986Z,24.33
2018-05-31T10:23:22.821Z,24.00
2018-05-31T10:25:53.355Z,25.00
2018-05-31T10:28:23.920Z,24.67
2018-05-31T10:30:54.529Z,23.67
2018-05-31T10:33:25.370Z,20.00
2018-05-31T10:35:55.878Z,23.67
2018-05-31T10:38:26.390Z,22.33
2018-05-31T10:40:56.854Z,20.67
2018-05-31T10:43:29.142Z,22.33
2018-05-31T10:45:59.741Z,23.33
2018-05-31T10:48:31.086Z,20.33
2018-05-31T10:51:01.678Z,22.00
2018-05-31T10:53:34.669Z,24.33
2018-05-31T10:56:05.006Z,21.33
2018-05-31T10:58:36.578Z,21.67
2018-05-31T11:01:08.010Z,21.67
2018-05-31T11:03:40.330Z,23.33
2018-05-31T11:06:10.925Z,22.33
2018-05-31T11:08:41.750Z,21.33
2018-05-31T11:11:13.462Z,22.67
2018-05-31T11:13:44.178Z,23.67
2018-05-31T11:16:14.692Z,22.33
2018-05-31T11:18:45.151Z,23.00
2018-05-31T11:21:17.626Z,23.67
2018-05-31T11:23:48.085Z,22.00
2018-05-31T11:26:18.979Z,21.33
2018-05-31T11:28:49.428Z,23.33
2018-05-31T11:31:20.349Z,23.00
2018-05-31T11:33:52.095Z,23.00
2018-05-31T11:36:23.468Z,20.33
2018-05-31T11:38:54.246Z,22.00
2018-05-31T11:41:24.796Z,20.00
2018-05-31T11:43:55.331Z,22.33
2018-05-31T11:46:25.856Z,21.00
2018-05-31T11:48:56.346Z,22.67
2018-05-31T11:51:26.951Z,23.00
2018-05-31T11:53:57.594Z,21.00
2018-05-31T11:56:28.306Z,22.00
2018-05-31T11:58:58.967Z,20.33
2018-05-31T12:01:29.530Z,23.33
2018-05-31T12:04:00.127Z,24.33
2018-05-31T12:06:30.799Z,22.00
2018-05-31T12:09:01.570Z,23.00
2018-05-31T12:11:31.930Z,25.67
2018-05-31T12:14:05.594Z,27.75
2018-05-31T12:16:37.669Z,25.33
2018-05-31T12:19:10.197Z,25.00
2018-05-31T12:21:42.615Z,23.67
2018-05-31T12:24:13.348Z,24.67
2018-05-31T12:26:46.147Z,23.00
2018-05-31T12:29:16.650Z,24.67
2018-05-31T12:31:49.245Z,26.67
2018-05-31T12:34:21.606Z,25.00
2018-05-31T12:36:52.226Z,22.33
2018-05-31T12:39:24.874Z,22.67
2018-05-31T12:41:55.500Z,20.33
2018-05-31T12:44:26.168Z,21.00
2018-05-31T12:46:59.051Z,23.00
2018-05-31T12:49:29.878Z,22.00
2018-05-31T12:52:03.606Z,22.33
2018-05-31T12:54:34.173Z,19.00
2018-05-31T12:57:06.986Z,20.33
2018-05-31T12:59:40.067Z,17.33
2018-05-31T13:02:12.817Z,18.00
2018-05-31T13:04:43.546Z,16.33
2018-05-31T13:07:14.826Z,13.33
2018-05-31T13:09:50.453Z,15.00
2018-05-31T13:12:22.823Z,15.00
2018-05-31T13:14:54.298Z,14.33
2018-05-31T13:17:26.073Z,17.00
2018-05-31T13:19:59.189Z,15.67
2018-05-31T13:22:30.788Z,16.00
2018-05-31T13:25:02.729Z,15.33
2018-05-31T13:27:34.190Z,13.67
2018-05-31T13:30:09.220Z,13.00
2018-05-31T13:32:41.445Z,17.00
2018-05-31T13:35:13.866Z,16.33
2018-05-31T13:37:45.474Z,16.00
2018-05-31T13:40:16.847Z,15.00
2018-05-31T13:42:48.350Z,12.33
2018-05-31T13:45:19.515Z,14.00
2018-05-31T13:47:50.662Z,12.33
2018-05-31T13:50:22.960Z,9.60
2018-05-31T13:52:55.203Z,9.20
2018-05-31T13:55:28.853Z,8.00
2018-05-31T13:58:02.886Z,7.00
2018-05-31T14:00:36.535Z,9.67
2018-05-31T14:03:10.340Z,8.67
2018-05-31T14:05:42.831Z,10.67
2018-05-31T14:08:14.842Z,10.33
2018-05-31T14:10:51.275Z,11.20
2018-05-31T14:13:23.766Z,11.00
2018-05-31T14:15:55.235Z,11.33
2018-05-31T14:18:26.690Z,10.33
2018-05-31T14:20:58.075Z,10.33
2018-05-31T14:23:30.770Z,10.00
2018-05-31T14:26:04.721Z,8.83
2018-05-31T14:28:37.979Z,10.25
2018-05-31T14:31:10.194Z,11.25
2018-05-31T14:33:42.930Z,10.00
2018-05-31T14:36:16.941Z,11.57
2018-05-31T14:38:51.193Z,9.57
2018-05-31T14:41:24.431Z,8.17
2018-05-31T14:43:57.891Z,9.00
2018-05-31T14:46:31.946Z,10.86
2018-05-31T14:49:05.433Z,8.33
2018-05-31T14:51:37.872Z,8.80
2018-05-31T14:54:11.280Z,9.50
2018-05-31T14:56:43.685Z,9.60
2018-05-31T14:59:16.259Z,8.40
2018-05-31T15:01:49.729Z,8.67
2018-05-31T15:04:24.037Z,13.29
2018-05-31T15:06:57.199Z,8.50
2018-05-31T15:09:32.369Z,9.00
2018-05-31T15:12:05.538Z,7.83
2018-05-31T15:14:39.115Z,8.00
2018-05-31T15:17:12.487Z,7.00
2018-05-31T15:19:46.094Z,8.33
2018-05-31T15:22:18.324Z,10.00
2018-05-31T15:24:50.531Z,9.00
2018-05-31T15:27:22.723Z,9.00
2018-05-31T15:29:55.162Z,11.00
2018-05-31T15:32:28.530Z,12.80
2018-05-31T15:35:00.639Z,9.33
2018-05-31T15:37:33.102Z,8.00
2018-05-31T15:40:05.382Z,10.00
2018-05-31T15:42:37.862Z,7.80
2018-05-31T15:45:10.127Z,11.00
2018-05-31T15:47:43.144Z,9.33
2018-05-31T15:50:17.057Z,9.00
2018-05-31T15:52:51.546Z,10.00
2018-05-31T15:55:24.766Z,8.00
2018-05-31T15:57:58.384Z,8.00
2018-05-31T16:00:31.557Z,8.00
2018-05-31T16:03:03.765Z,9.60
2018-05-31T16:05:38.106Z,10.14
2018-05-31T16:08:12.091Z,10.71
2018-05-31T16:10:44.346Z,9.00
2018-05-31T16:13:17.604Z,12.20
2018-05-31T16:15:48.932Z,7.33
2018-05-31T16:18:22.106Z,7.67
2018-05-31T16:20:55.774Z,8.33
2018-05-31T16:23:28.928Z,7.83
2018-05-31T16:26:02.166Z,9.83
2018-05-31T16:28:35.387Z,6.33
2018-05-31T16:31:10.590Z,9.29
2018-05-31T16:33:44.550Z,8.67
2018-05-31T16:36:17.157Z,10.67
2018-05-31T16:38:48.619Z,9.67
2018-05-31T16:41:20.135Z,9.00
2018-05-31T16:43:53.954Z,10.57
2018-05-31T16:46:27.602Z,8.83
2018-05-31T16:48:59.839Z,10.00
2018-05-31T16:51:33.032Z,9.33
2018-05-31T16:54:06.994Z,11.14
2018-05-31T16:56:40.134Z,8.00
2018-05-31T16:59:13.481Z,10.60
2018-05-31T17:01:45.770Z,9.40
2018-05-31T17:04:19.734Z,9.86
2018-05-31T17:06:52.366Z,10.20
2018-05-31T17:09:25.606Z,9.00
2018-05-31T17:11:58.011Z,11.00
2018-05-31T17:14:30.534Z,9.80
2018-05-31T17:17:04.436Z,9.71
2018-05-31T17:19:38.491Z,9.86
2018-05-31T17:22:10.802Z,11.00
2018-05-31T17:24:44.821Z,11.14
2018-05-31T17:27:17.759Z,12.80
2018-05-31T17:29:49.646Z,10.67
2018-05-31T17:32:21.950Z,9.33
2018-05-31T17:34:54.634Z,11.00
2018-05-31T17:37:28.576Z,10.14
2018-05-31T17:40:00.162Z,11.00
2018-05-31T17:42:32.540Z,13.20
2018-05-31T17:45:06.789Z,10.14
2018-05-31T17:47:39.066Z,11.40
2018-05-31T17:50:11.634Z,10.75
2018-05-31T17:52:44.715Z,12.20
2018-05-31T17:55:16.143Z,12.33
2018-05-31T17:57:47.701Z,13.00
2018-05-31T18:00:20.879Z,12.00
2018-05-31T18:02:52.313Z,10.33
2018-05-31T18:05:24.401Z,12.00
2018-05-31T18:07:55.989Z,14.00
2018-05-31T18:10:30.033Z,12.00
2018-05-31T18:13:02.899Z,13.00
2018-05-31T18:15:34.397Z,9.67
2018-05-31T18:18:07.218Z,12.00
2018-05-31T18:20:38.677Z,12.00
2018-05-31T18:23:10.333Z,15.33
2018-05-31T18:25:42.323Z,14.67
2018-05-31T18:28:14.805Z,13.33
2018-05-31T18:30:46.299Z,15.00
2018-05-31T18:33:17.734Z,13.67
2018-05-31T18:35:49.431Z,14.00
2018-05-31T18:38:23.188Z,13.50
2018-05-31T18:40:54.648Z,15.33
2018-05-31T18:43:26.178Z,17.33
2018-05-31T18:45:57.811Z,15.67
2018-05-31T18:48:29.422Z,17.67
2018-05-31T18:51:01.415Z,16.00
2018-05-31T18:53:33.068Z,15.33
2018-05-31T18:56:04.563Z,18.00
2018-05-31T18:58:36.330Z,19.00
2018-05-31T19:01:07.988Z,16.33
2018-05-31T19:03:39.786Z,17.67
2018-05-31T19:06:12.102Z,19.00
2018-05-31T19:08:44.275Z,16.67
2018-05-31T19:11:17.131Z,16.33
2018-05-31T19:14:04.926Z,16.00
2018-05-31T19:16:35.987Z,16.67
2018-05-31T19:19:11.434Z,15.00
2018-05-31T19:21:42.698Z,16.00
2018-05-31T19:24:18.129Z,17.00
2018-05-31T19:26:49.254Z,14.33
2018-05-31T19:29:25.469Z,17.00
2018-05-31T19:31:56.747Z,17.33
2018-05-31T19:34:29.323Z,18.00
2018-05-31T19:37:18.977Z,17.67
2018-05-31T19:39:50.473Z,16.67
2018-05-31T19:42:25.975Z,18.00
2018-05-31T19:44:57.475Z,16.00
2018-05-31T19:47:29.891Z,17.00
2018-05-31T19:50:00.831Z,19.67
2018-05-31T19:52:38.122Z,17.33
2018-05-31T19:55:09.997Z,15.00
2018-05-31T19:57:44.658Z,20.00
2018-05-31T20:00:22.595Z,21.00
2018-05-31T20:04:01.451Z,18.00
2018-05-31T20:06:33.630Z,19.00
2018-05-31T20:09:06.677Z,19.00
2018-05-31T20:11:37.199Z,20.00
2018-05-31T20:14:09.503Z,20.67
2018-05-31T20:16:39.875Z,19.67
2018-05-31T20:19:11.154Z,21.00
2018-05-31T20:21:42.507Z,21.33
2018-05-31T20:24:14.742Z,19.00
2018-05-31T20:26:46.085Z,17.33
2018-05-31T20:29:19.123Z,19.00
2018-05-31T20:31:50.688Z,18.00
2018-05-31T20:34:23.127Z,18.00
2018-05-31T20:36:54.898Z,19.00
2018-05-31T20:39:25.234Z,17.33
2018-05-31T20:41:56.371Z,19.00
2018-05-31T20:44:28.674Z,18.33
2018-05-31T20:46:59.229Z,15.00
2018-05-31T20:49:32.154Z,14.67
2018-05-31T20:52:04.742Z,14.33
2018-05-31T20:54:35.850Z,17.67
2018-05-31T20:57:08.187Z,16.00
2018-05-31T20:59:41.331Z,16.00
2018-05-31T21:02:12.842Z,19.00
2018-05-31T21:04:44.968Z,16.33
2018-05-31T21:07:16.903Z,17.33
2018-05-31T21:09:49.562Z,17.00
2018-05-31T21:12:21.470Z,17.33
2018-05-31T21:14:52.636Z,17.33
2018-05-31T21:17:24.069Z,16.67
2018-05-31T21:19:55.848Z,16.67
2018-05-31T21:22:27.487Z,16.00
2018-05-31T21:24:58.805Z,15.00
2018-05-31T21:27:29.916Z,17.33
2018-05-31T21:30:01.103Z,16.00
2018-05-31T21:32:33.991Z,16.00
2018-05-31T21:35:05.144Z,16.00
2018-05-31T21:37:36.484Z,15.33
2018-05-31T21:40:07.665Z,18.00
2018-05-31T21:42:39.147Z,17.00
2018-05-31T21:45:12.328Z,14.33
2018-05-31T21:47:44.497Z,16.67
2018-05-31T21:50:17.170Z,17.33
2018-05-31T21:52:48.658Z,19.00
2018-05-31T21:55:19.310Z,17.00
2018-05-31T21:57:52.256Z,16.00
2018-05-31T22:00:23.863Z,18.00
2018-05-31T22:02:55.001Z,16.67
2018-05-31T22:05:26.643Z,16.33
2018-05-31T22:07:57.902Z,19.33
2018-05-31T22:10:29.870Z,21.33
2018-05-31T22:13:00.741Z,16.33
2018-05-31T22:15:32.178Z,19.00
2018-05-31T22:18:02.591Z,19.67
2018-05-31T22:20:33.080Z,17.00
2018-05-31T22:23:04.287Z,16.00
2018-05-31T22:25:37.029Z,17.00
2018-05-31T22:28:09.141Z,18.00
2018-05-31T22:30:41.518Z,19.33
2018-05-31T22:33:11.722Z,17.00
2018-05-31T22:35:44.146Z,21.00
2018-05-31T22:38:15.978Z,21.00
2018-05-31T22:40:47.950Z,15.67
2018-05-31T22:43:20.575Z,18.00
2018-05-31T22:45:52.862Z,17.33
2018-05-31T22:48:25.580Z,21.00
2018-05-31T22:50:57.058Z,16.00
2018-05-31T22:53:29.291Z,17.33
2018-05-31T22:56:01.053Z,17.67
2018-05-31T22:58:31.298Z,19.33
2018-05-31T23:01:02.475Z,19.00
2018-05-31T23:03:34.874Z,19.00
2018-05-31T23:06:06.108Z,20.00
2018-05-31T23:08:40.794Z,16.33
2018-05-31T23:11:13.204Z,22.00
2018-05-31T23:13:46.038Z,20.33
2018-05-31T23:16:18.344Z,18.00
2018-05-31T23:18:48.986Z,15.67
2018-05-31T23:21:20.357Z,16.67
2018-05-31T23:23:53.644Z,17.67
2018-05-31T23:26:25.975Z,20.00
2018-05-31T23:28:56.575Z,22.00
2018-05-31T23:31:29.473Z,22.67
2018-05-31T23:34:00.006Z,19.33
2018-05-31T23:36:30.964Z,20.00
2018-05-31T23:39:02.002Z,20.00
2018-05-31T23:41:33.390Z,17.67
2018-05-31T23:44:04.967Z,20.00
2018-05-31T23:46:37.458Z,22.00
2018-05-31T23:49:08.093Z,17.33
2018-05-31T23:51:38.893Z,20.00
2018-05-31T23:54:09.558Z,20.00
2018-05-31T23:56:40.166Z,20.33
2018-05-31T23:59:12.606Z,21.67
